RYR52UR LIPH-LROP
Flight info
| Callsign | RYR52UR |
|---|---|
| Flight time | 1h 36m |
| Altitude | 37000 |
| Route | INBUT N503 LAREN Q561 AKADO L615 ROTAR DCT NAKIT DCT PUL DCT ENUPU DCT VELIP DCT TOSVI |
| Aircraft | B738/M-SDE2E3FGHIRWXY/LB1 |
Departure
| Time | 2026-04-25 13:40 |
|---|---|
| Airport | Treviso Airport (LIPH) |
Arrival
| Time | 2026-04-25 15:16 |
|---|---|
| Airport | Bucharest Henri Coandă International Airport (LROP) |
| Time | Latitude | Longitude | Altitude | Speed | Heading |
|---|---|---|---|---|---|
| 2026-04-25 13:02 | 45.65349 | 12.20323 | 62 ft | 0 kts | 339° |
| 2026-04-25 13:31 | 45.65331 | 12.20332 | 54 ft | 4 kts | 345° |
| 2026-04-25 13:31 | 45.65305 | 12.20338 | 54 ft | 4 kts | 10° |
| 2026-04-25 13:31 | 45.65288 | 12.20325 | 57 ft | 2 kts | 69° |
| 2026-04-25 13:32 | 45.65287 | 12.20324 | 57 ft | 1 kts | 69° |
| 2026-04-25 13:35 | 45.65290 | 12.20336 | 55 ft | 2 kts | 69° |
| 2026-04-25 13:36 | 45.65297 | 12.20359 | 55 ft | 4 kts | 69° |
| 2026-04-25 13:36 | 45.65309 | 12.20404 | 55 ft | 6 kts | 69° |
| 2026-04-25 13:36 | 45.65327 | 12.20473 | 59 ft | 9 kts | 69° |
| 2026-04-25 13:36 | 45.65352 | 12.20566 | 56 ft | 11 kts | 69° |
| 2026-04-25 13:37 | 45.65378 | 12.20662 | 54 ft | 7 kts | 70° |
| 2026-04-25 13:37 | 45.65368 | 12.20726 | 58 ft | 7 kts | 144° |
| 2026-04-25 13:37 | 45.65327 | 12.20751 | 56 ft | 6 kts | 159° |
| 2026-04-25 13:37 | 45.65287 | 12.20772 | 57 ft | 6 kts | 159° |
| 2026-04-25 13:38 | 45.65251 | 12.20798 | 57 ft | 4 kts | 142° |
| 2026-04-25 13:38 | 45.65224 | 12.20799 | 59 ft | 4 kts | 220° |
| 2026-04-25 13:38 | 45.65215 | 12.20775 | 60 ft | 0 kts | 247° |
| 2026-04-25 13:39 | 45.65214 | 12.20774 | 60 ft | 2 kts | 247° |
| 2026-04-25 13:39 | 45.65133 | 12.20470 | 62 ft | 70 kts | 249° |
| 2026-04-25 13:39 | 45.64873 | 12.19491 | 58 ft | 138 kts | 249° |
| 2026-04-25 13:39 | 45.64452 | 12.17999 | 267 ft | 174 kts | 245° |
| 2026-04-25 13:40 | 45.64058 | 12.16464 | 1236 ft | 161 kts | 248° |
| 2026-04-25 13:40 | 45.63654 | 12.14953 | 2025 ft | 161 kts | 244° |
| 2026-04-25 13:40 | 45.63206 | 12.13496 | 2625 ft | 163 kts | 242° |
| 2026-04-25 13:40 | 45.62723 | 12.12048 | 3269 ft | 162 kts | 242° |
| 2026-04-25 13:41 | 45.62226 | 12.10538 | 3728 ft | 171 kts | 243° |
| 2026-04-25 13:41 | 45.61733 | 12.08995 | 4335 ft | 173 kts | 245° |
| 2026-04-25 13:41 | 45.61212 | 12.07393 | 4728 ft | 188 kts | 245° |
| 2026-04-25 13:41 | 45.60633 | 12.05600 | 4909 ft | 208 kts | 247° |
| 2026-04-25 13:42 | 45.60001 | 12.03628 | 5050 ft | 229 kts | 246° |
| 2026-04-25 13:42 | 45.59310 | 12.01462 | 5216 ft | 250 kts | 246° |
| 2026-04-25 13:42 | 45.58518 | 11.99167 | 5643 ft | 262 kts | 244° |
| 2026-04-25 13:42 | 45.57743 | 11.96775 | 6271 ft | 266 kts | 246° |
| 2026-04-25 13:43 | 45.56975 | 11.94356 | 6939 ft | 270 kts | 245° |
| 2026-04-25 13:43 | 45.56147 | 11.91936 | 7640 ft | 274 kts | 244° |
| 2026-04-25 13:43 | 45.55335 | 11.89484 | 8363 ft | 274 kts | 246° |
| 2026-04-25 13:43 | 45.54528 | 11.86980 | 9068 ft | 278 kts | 245° |
| 2026-04-25 13:44 | 45.53570 | 11.84626 | 9832 ft | 282 kts | 227° |
| 2026-04-25 13:44 | 45.51871 | 11.83209 | 10407 ft | 295 kts | 196° |
| 2026-04-25 13:44 | 45.49739 | 11.83194 | 10556 ft | 324 kts | 166° |
| 2026-04-25 13:44 | 45.47695 | 11.84760 | 10923 ft | 342 kts | 144° |
| 2026-04-25 13:45 | 45.45806 | 11.86871 | 11525 ft | 347 kts | 143° |
| 2026-04-25 13:45 | 45.43890 | 11.88999 | 12230 ft | 351 kts | 143° |
| 2026-04-25 13:45 | 45.41942 | 11.91116 | 12938 ft | 354 kts | 144° |
| 2026-04-25 13:45 | 45.39964 | 11.93242 | 13668 ft | 358 kts | 144° |
| 2026-04-25 13:46 | 45.37967 | 11.95375 | 14339 ft | 361 kts | 144° |
| 2026-04-25 13:46 | 45.35947 | 11.97530 | 15038 ft | 364 kts | 144° |
| 2026-04-25 13:46 | 45.33911 | 11.99702 | 15748 ft | 367 kts | 144° |
| 2026-04-25 13:46 | 45.31858 | 12.01885 | 16463 ft | 370 kts | 145° |
| 2026-04-25 13:47 | 45.29900 | 12.04263 | 17124 ft | 377 kts | 130° |
| 2026-04-25 13:47 | 45.28738 | 12.07614 | 17772 ft | 384 kts | 105° |
| 2026-04-25 13:47 | 45.28421 | 12.11385 | 18413 ft | 388 kts | 85° |
| 2026-04-25 13:47 | 45.28820 | 12.15194 | 18969 ft | 393 kts | 79° |
| 2026-04-25 13:48 | 45.29338 | 12.19024 | 19483 ft | 398 kts | 78° |
| 2026-04-25 13:48 | 45.29875 | 12.22911 | 20001 ft | 403 kts | 78° |
| 2026-04-25 13:48 | 45.30404 | 12.26841 | 20539 ft | 407 kts | 79° |
| 2026-04-25 13:48 | 45.30918 | 12.30807 | 21067 ft | 411 kts | 79° |
| 2026-04-25 13:49 | 45.31426 | 12.34835 | 21555 ft | 417 kts | 79° |
| 2026-04-25 13:49 | 45.31933 | 12.38907 | 22075 ft | 421 kts | 80° |
| 2026-04-25 13:49 | 45.32444 | 12.43022 | 22605 ft | 424 kts | 80° |
| 2026-04-25 13:49 | 45.32906 | 12.47183 | 23087 ft | 429 kts | 85° |
| 2026-04-25 13:50 | 45.32939 | 12.51422 | 23569 ft | 432 kts | 95° |
| 2026-04-25 13:50 | 45.32476 | 12.55637 | 24002 ft | 433 kts | 105° |
| 2026-04-25 13:50 | 45.31751 | 12.59795 | 24483 ft | 434 kts | 106° |
| 2026-04-25 13:50 | 45.30993 | 12.63961 | 24941 ft | 436 kts | 106° |
| 2026-04-25 13:51 | 45.30245 | 12.68146 | 25367 ft | 439 kts | 105° |
| 2026-04-25 13:51 | 45.29513 | 12.72370 | 25794 ft | 441 kts | 105° |
| 2026-04-25 13:51 | 45.28790 | 12.76618 | 26217 ft | 444 kts | 105° |
| 2026-04-25 13:51 | 45.28121 | 12.80904 | 26619 ft | 447 kts | 101° |
| 2026-04-25 13:52 | 45.27654 | 12.85286 | 27038 ft | 449 kts | 98° |
| 2026-04-25 13:52 | 45.27269 | 12.89687 | 27458 ft | 451 kts | 98° |
| 2026-04-25 13:52 | 45.26864 | 12.94112 | 27843 ft | 453 kts | 98° |
| 2026-04-25 13:52 | 45.26424 | 12.98558 | 28215 ft | 456 kts | 99° |
| 2026-04-25 13:53 | 45.25833 | 13.02991 | 28579 ft | 458 kts | 103° |
| 2026-04-25 13:53 | 45.25298 | 13.06303 | 28861 ft | 459 kts | 104° |
| 2026-04-25 13:53 | 45.24688 | 13.09887 | 29162 ft | 461 kts | 104° |
| 2026-04-25 13:53 | 45.23924 | 13.14316 | 29509 ft | 463 kts | 104° |
| 2026-04-25 13:54 | 45.23160 | 13.18782 | 29860 ft | 466 kts | 104° |
| 2026-04-25 13:54 | 45.22405 | 13.23257 | 30184 ft | 468 kts | 104° |
| 2026-04-25 13:54 | 45.21655 | 13.27752 | 30478 ft | 469 kts | 104° |
| 2026-04-25 13:54 | 45.20903 | 13.32269 | 30755 ft | 471 kts | 104° |
| 2026-04-25 13:55 | 45.20149 | 13.36793 | 31012 ft | 473 kts | 104° |
| 2026-04-25 13:55 | 45.19252 | 13.41279 | 31248 ft | 474 kts | 112° |
| 2026-04-25 13:55 | 45.17863 | 13.45506 | 31546 ft | 472 kts | 121° |
| 2026-04-25 13:55 | 45.16064 | 13.49370 | 31972 ft | 466 kts | 131° |
| 2026-04-25 13:56 | 45.13953 | 13.52804 | 32454 ft | 461 kts | 134° |
| 2026-04-25 13:56 | 45.11797 | 13.56164 | 32802 ft | 460 kts | 134° |
| 2026-04-25 13:56 | 45.09641 | 13.59517 | 33077 ft | 461 kts | 134° |
| 2026-04-25 13:56 | 45.07483 | 13.62894 | 33378 ft | 462 kts | 134° |
| 2026-04-25 13:57 | 45.05339 | 13.66275 | 33749 ft | 460 kts | 134° |
| 2026-04-25 13:57 | 45.04652 | 13.67363 | 33873 ft | 460 kts | 134° |
| 2026-04-25 13:57 | 45.01092 | 13.73011 | 34409 ft | 458 kts | 134° |
| 2026-04-25 13:57 | 44.98974 | 13.76371 | 34651 ft | 459 kts | 134° |
| 2026-04-25 13:58 | 44.96846 | 13.79740 | 34914 ft | 458 kts | 134° |
| 2026-04-25 13:58 | 44.94726 | 13.83094 | 35195 ft | 458 kts | 134° |
| 2026-04-25 13:58 | 44.92602 | 13.86449 | 35465 ft | 457 kts | 133° |
| 2026-04-25 13:58 | 44.90723 | 13.90064 | 35746 ft | 459 kts | 120° |
| 2026-04-25 13:59 | 44.89474 | 13.94213 | 36030 ft | 461 kts | 107° |
| 2026-04-25 13:59 | 44.88865 | 13.98646 | 36248 ft | 463 kts | 94° |
| 2026-04-25 13:59 | 44.88733 | 14.03131 | 36451 ft | 463 kts | 92° |
| 2026-04-25 13:59 | 44.88646 | 14.07671 | 36667 ft | 463 kts | 91° |
| 2026-04-25 14:00 | 44.88593 | 14.10736 | 36834 ft | 463 kts | 91° |
| 2026-04-25 14:00 | 44.88476 | 14.16756 | 37054 ft | 464 kts | 92° |
| 2026-04-25 14:00 | 44.88370 | 14.21315 | 37041 ft | 467 kts | 92° |
| 2026-04-25 14:01 | 44.88120 | 14.30481 | 37040 ft | 467 kts | 92° |
| 2026-04-25 14:01 | 44.87887 | 14.38194 | 37040 ft | 465 kts | 92° |
| 2026-04-25 14:02 | 44.87603 | 14.47283 | 37034 ft | 463 kts | 92° |
| 2026-04-25 14:02 | 44.87313 | 14.56325 | 37040 ft | 460 kts | 92° |
| 2026-04-25 14:03 | 44.87020 | 14.65283 | 37042 ft | 459 kts | 92° |
| 2026-04-25 14:03 | 44.86720 | 14.74261 | 37040 ft | 458 kts | 92° |
| 2026-04-25 14:04 | 44.86413 | 14.83245 | 37041 ft | 459 kts | 92° |
| 2026-04-25 14:04 | 44.86099 | 14.92232 | 37045 ft | 460 kts | 93° |
| 2026-04-25 14:05 | 44.85777 | 15.01264 | 37034 ft | 462 kts | 93° |
| 2026-04-25 14:05 | 44.85445 | 15.10331 | 37029 ft | 463 kts | 93° |
| 2026-04-25 14:06 | 44.85106 | 15.19408 | 37034 ft | 465 kts | 93° |
| 2026-04-25 14:06 | 44.84759 | 15.28509 | 37026 ft | 466 kts | 93° |
| 2026-04-25 14:07 | 44.84403 | 15.37657 | 37035 ft | 467 kts | 93° |
| 2026-04-25 14:07 | 44.84040 | 15.46794 | 37016 ft | 467 kts | 93° |
| 2026-04-25 14:08 | 44.83669 | 15.55938 | 37013 ft | 467 kts | 93° |
| 2026-04-25 14:08 | 44.83291 | 15.65085 | 37010 ft | 466 kts | 93° |
| 2026-04-25 14:09 | 44.82907 | 15.74195 | 37013 ft | 465 kts | 93° |
| 2026-04-25 14:09 | 44.82517 | 15.83264 | 37005 ft | 463 kts | 93° |
| 2026-04-25 14:10 | 44.82122 | 15.92318 | 37003 ft | 462 kts | 93° |
| 2026-04-25 14:10 | 44.81719 | 16.01362 | 36997 ft | 462 kts | 93° |
| 2026-04-25 14:11 | 44.81311 | 16.10342 | 36993 ft | 461 kts | 93° |
| 2026-04-25 14:11 | 44.80884 | 16.19361 | 37000 ft | 460 kts | 93° |
| 2026-04-25 14:12 | 44.80463 | 16.28367 | 37004 ft | 461 kts | 93° |
| 2026-04-25 14:12 | 44.80042 | 16.37337 | 37018 ft | 462 kts | 93° |
| 2026-04-25 14:13 | 44.79607 | 16.46369 | 36996 ft | 463 kts | 93° |
| 2026-04-25 14:13 | 44.79161 | 16.55424 | 37011 ft | 464 kts | 93° |
| 2026-04-25 14:14 | 44.78706 | 16.64498 | 37001 ft | 465 kts | 93° |
| 2026-04-25 14:14 | 44.78242 | 16.73611 | 37003 ft | 466 kts | 93° |
| 2026-04-25 14:15 | 44.77771 | 16.82730 | 37004 ft | 467 kts | 93° |
| 2026-04-25 14:15 | 44.77291 | 16.91862 | 37000 ft | 468 kts | 93° |
| 2026-04-25 14:16 | 44.76804 | 17.00992 | 37001 ft | 467 kts | 93° |
| 2026-04-25 14:16 | 44.76311 | 17.10105 | 36991 ft | 466 kts | 93° |
| 2026-04-25 14:17 | 44.75811 | 17.19213 | 37001 ft | 465 kts | 93° |
| 2026-04-25 14:17 | 44.75309 | 17.28223 | 37001 ft | 464 kts | 94° |
| 2026-04-25 14:18 | 44.74797 | 17.37266 | 37005 ft | 463 kts | 93° |
| 2026-04-25 14:18 | 44.74280 | 17.46296 | 37000 ft | 462 kts | 93° |
| 2026-04-25 14:19 | 44.73756 | 17.55307 | 36999 ft | 462 kts | 94° |
| 2026-04-25 14:19 | 44.73226 | 17.64291 | 37014 ft | 461 kts | 94° |
| 2026-04-25 14:20 | 44.72691 | 17.73264 | 37023 ft | 460 kts | 93° |
| 2026-04-25 14:20 | 44.72147 | 17.82242 | 37013 ft | 460 kts | 93° |
| 2026-04-25 14:21 | 44.71598 | 17.91208 | 37019 ft | 460 kts | 94° |
| 2026-04-25 14:21 | 44.71041 | 18.00174 | 37016 ft | 460 kts | 94° |
| 2026-04-25 14:22 | 44.70477 | 18.09143 | 37026 ft | 461 kts | 93° |
| 2026-04-25 14:22 | 44.69905 | 18.18119 | 37014 ft | 461 kts | 93° |
| 2026-04-25 14:23 | 44.69326 | 18.27098 | 37016 ft | 462 kts | 94° |
| 2026-04-25 14:23 | 44.68739 | 18.36100 | 37019 ft | 463 kts | 94° |
| 2026-04-25 14:24 | 44.68142 | 18.45133 | 37022 ft | 464 kts | 93° |
| 2026-04-25 14:24 | 44.67537 | 18.54160 | 37022 ft | 464 kts | 93° |
| 2026-04-25 14:25 | 44.66926 | 18.63203 | 37025 ft | 465 kts | 94° |
| 2026-04-25 14:25 | 44.66305 | 18.72265 | 37017 ft | 466 kts | 94° |
| 2026-04-25 14:26 | 44.65676 | 18.81332 | 37017 ft | 466 kts | 94° |
| 2026-04-25 14:26 | 44.65040 | 18.90400 | 37018 ft | 466 kts | 94° |
| 2026-04-25 14:27 | 44.64397 | 18.99460 | 37012 ft | 466 kts | 94° |
| 2026-04-25 14:27 | 44.63747 | 19.08506 | 37020 ft | 465 kts | 94° |
| 2026-04-25 14:28 | 44.63089 | 19.17555 | 37009 ft | 465 kts | 94° |
| 2026-04-25 14:28 | 44.62430 | 19.26522 | 37017 ft | 464 kts | 94° |
| 2026-04-25 14:29 | 44.61795 | 19.35523 | 37013 ft | 463 kts | 90° |
| 2026-04-25 14:29 | 44.62227 | 19.44466 | 37016 ft | 458 kts | 80° |
| 2026-04-25 14:30 | 44.63015 | 19.53345 | 37015 ft | 458 kts | 80° |
| 2026-04-25 14:30 | 44.64133 | 19.66647 | 37020 ft | 457 kts | 81° |
| 2026-04-25 14:31 | 44.64832 | 19.75539 | 37009 ft | 458 kts | 81° |
| 2026-04-25 14:31 | 44.65516 | 19.84426 | 37020 ft | 458 kts | 81° |
| 2026-04-25 14:32 | 44.66195 | 19.93340 | 37018 ft | 459 kts | 81° |
| 2026-04-25 14:32 | 44.66870 | 20.02268 | 37024 ft | 460 kts | 81° |
| 2026-04-25 14:33 | 44.67539 | 20.11210 | 37027 ft | 460 kts | 81° |
| 2026-04-25 14:33 | 44.68202 | 20.20165 | 37021 ft | 461 kts | 81° |
| 2026-04-25 14:34 | 44.68859 | 20.29144 | 37020 ft | 461 kts | 81° |
| 2026-04-25 14:34 | 44.69509 | 20.38119 | 37025 ft | 462 kts | 81° |
| 2026-04-25 14:35 | 44.70152 | 20.47099 | 37036 ft | 462 kts | 81° |
| 2026-04-25 14:35 | 44.70788 | 20.56094 | 37022 ft | 462 kts | 81° |
| 2026-04-25 14:36 | 44.71419 | 20.65096 | 37017 ft | 463 kts | 81° |
| 2026-04-25 14:36 | 44.72041 | 20.74095 | 37008 ft | 462 kts | 81° |
| 2026-04-25 14:37 | 44.72657 | 20.83100 | 37007 ft | 462 kts | 81° |
| 2026-04-25 14:37 | 44.73264 | 20.92087 | 37016 ft | 461 kts | 81° |
| 2026-04-25 14:38 | 44.73763 | 20.99554 | 37004 ft | 461 kts | 81° |
| 2026-04-25 14:38 | 44.74357 | 21.08545 | 36998 ft | 461 kts | 81° |
| 2026-04-25 14:39 | 44.74943 | 21.17517 | 36997 ft | 460 kts | 81° |
| 2026-04-25 14:39 | 44.75520 | 21.26472 | 36997 ft | 459 kts | 81° |
| 2026-04-25 14:40 | 44.76089 | 21.35421 | 37009 ft | 459 kts | 81° |
| 2026-04-25 14:40 | 44.76651 | 21.44375 | 36992 ft | 459 kts | 81° |
| 2026-04-25 14:41 | 44.77203 | 21.53332 | 36993 ft | 459 kts | 83° |
| 2026-04-25 14:41 | 44.77411 | 21.62328 | 37006 ft | 460 kts | 86° |
| 2026-04-25 14:42 | 44.77445 | 21.69818 | 36999 ft | 460 kts | 86° |
| 2026-04-25 14:42 | 44.77489 | 21.80356 | 36999 ft | 460 kts | 86° |
| 2026-04-25 14:43 | 44.77548 | 21.89370 | 36996 ft | 460 kts | 86° |
| 2026-04-25 14:43 | 44.77613 | 21.98375 | 36987 ft | 460 kts | 86° |
| 2026-04-25 14:44 | 44.77674 | 22.07375 | 36993 ft | 460 kts | 86° |
| 2026-04-25 14:44 | 44.77727 | 22.16368 | 36996 ft | 460 kts | 85° |
| 2026-04-25 14:45 | 44.77772 | 22.25371 | 36985 ft | 459 kts | 86° |
| 2026-04-25 14:45 | 44.77809 | 22.34354 | 36987 ft | 459 kts | 86° |
| 2026-04-25 14:46 | 44.77839 | 22.43336 | 36680 ft | 456 kts | 86° |
| 2026-04-25 14:46 | 44.77849 | 22.47760 | 36420 ft | 448 kts | 86° |
| 2026-04-25 14:46 | 44.77858 | 22.52118 | 36038 ft | 444 kts | 86° |
| 2026-04-25 14:47 | 44.77866 | 22.56443 | 35682 ft | 440 kts | 86° |
| 2026-04-25 14:47 | 44.77871 | 22.59358 | 35425 ft | 438 kts | 86° |
| 2026-04-25 14:47 | 44.77879 | 22.65003 | 34933 ft | 433 kts | 86° |
| 2026-04-25 14:47 | 44.77883 | 22.69221 | 34571 ft | 430 kts | 86° |
| 2026-04-25 14:48 | 44.77886 | 22.73425 | 34213 ft | 428 kts | 86° |
| 2026-04-25 14:48 | 44.77887 | 22.77596 | 33830 ft | 425 kts | 86° |
| 2026-04-25 14:48 | 44.77887 | 22.81740 | 33430 ft | 423 kts | 86° |
| 2026-04-25 14:48 | 44.77885 | 22.85874 | 33047 ft | 420 kts | 86° |
| 2026-04-25 14:49 | 44.77881 | 22.89968 | 32699 ft | 416 kts | 86° |
| 2026-04-25 14:49 | 44.77876 | 22.94026 | 32333 ft | 413 kts | 86° |
| 2026-04-25 14:49 | 44.77869 | 22.98069 | 31995 ft | 410 kts | 86° |
| 2026-04-25 14:49 | 44.77862 | 23.02062 | 31645 ft | 407 kts | 86° |
| 2026-04-25 14:50 | 44.77853 | 23.06037 | 31307 ft | 405 kts | 86° |
| 2026-04-25 14:50 | 44.77842 | 23.09983 | 30964 ft | 402 kts | 86° |
| 2026-04-25 14:50 | 44.77831 | 23.13906 | 30630 ft | 399 kts | 86° |
| 2026-04-25 14:50 | 44.77818 | 23.17804 | 30301 ft | 397 kts | 86° |
| 2026-04-25 14:51 | 44.77804 | 23.21693 | 29952 ft | 395 kts | 86° |
| 2026-04-25 14:51 | 44.77789 | 23.25543 | 29562 ft | 393 kts | 86° |
| 2026-04-25 14:51 | 44.77772 | 23.29370 | 29217 ft | 389 kts | 86° |
| 2026-04-25 14:51 | 44.77754 | 23.33169 | 28861 ft | 386 kts | 86° |
| 2026-04-25 14:52 | 44.77735 | 23.36928 | 28519 ft | 383 kts | 86° |
| 2026-04-25 14:52 | 44.77715 | 23.40667 | 28178 ft | 381 kts | 86° |
| 2026-04-25 14:52 | 44.77694 | 23.44391 | 27840 ft | 380 kts | 86° |
| 2026-04-25 14:52 | 44.77680 | 23.46851 | 27608 ft | 379 kts | 86° |
| 2026-04-25 14:53 | 44.77650 | 23.51807 | 27162 ft | 378 kts | 86° |
| 2026-04-25 14:53 | 44.77626 | 23.55508 | 26819 ft | 377 kts | 87° |
| 2026-04-25 14:53 | 44.77601 | 23.59193 | 26479 ft | 377 kts | 87° |
| 2026-04-25 14:53 | 44.77574 | 23.62881 | 26140 ft | 376 kts | 87° |
| 2026-04-25 14:54 | 44.77547 | 23.66568 | 25809 ft | 376 kts | 87° |
| 2026-04-25 14:54 | 44.77518 | 23.70256 | 25474 ft | 376 kts | 87° |
| 2026-04-25 14:54 | 44.77488 | 23.73933 | 25140 ft | 376 kts | 87° |
| 2026-04-25 14:54 | 44.77456 | 23.77618 | 24802 ft | 376 kts | 87° |
| 2026-04-25 14:55 | 44.77424 | 23.81295 | 24469 ft | 376 kts | 87° |
| 2026-04-25 14:55 | 44.77390 | 23.84979 | 24133 ft | 377 kts | 88° |
| 2026-04-25 14:55 | 44.77356 | 23.88666 | 23804 ft | 377 kts | 88° |
| 2026-04-25 14:55 | 44.77319 | 23.92360 | 23438 ft | 378 kts | 88° |
| 2026-04-25 14:56 | 44.77282 | 23.96052 | 23036 ft | 376 kts | 88° |
| 2026-04-25 14:56 | 44.77243 | 23.99719 | 22670 ft | 373 kts | 88° |
| 2026-04-25 14:56 | 44.77203 | 24.03354 | 22331 ft | 370 kts | 88° |
| 2026-04-25 14:56 | 44.77162 | 24.06959 | 21989 ft | 367 kts | 88° |
| 2026-04-25 14:57 | 44.77121 | 24.10535 | 21645 ft | 364 kts | 88° |
| 2026-04-25 14:57 | 44.77079 | 24.14078 | 21328 ft | 361 kts | 88° |
| 2026-04-25 14:57 | 44.77037 | 24.17604 | 20995 ft | 359 kts | 88° |
| 2026-04-25 14:57 | 44.76994 | 24.21065 | 20678 ft | 356 kts | 88° |
| 2026-04-25 14:58 | 44.76950 | 24.24539 | 20335 ft | 354 kts | 88° |
| 2026-04-25 14:58 | 44.76905 | 24.27995 | 20024 ft | 352 kts | 88° |
| 2026-04-25 14:58 | 44.76860 | 24.31428 | 19702 ft | 350 kts | 88° |
| 2026-04-25 14:58 | 44.76813 | 24.34851 | 19378 ft | 348 kts | 89° |
| 2026-04-25 14:59 | 44.76766 | 24.38253 | 19068 ft | 347 kts | 89° |
| 2026-04-25 14:59 | 44.76718 | 24.41643 | 18745 ft | 346 kts | 89° |
| 2026-04-25 14:59 | 44.76670 | 24.45015 | 18432 ft | 344 kts | 89° |
| 2026-04-25 14:59 | 44.76620 | 24.48384 | 18083 ft | 343 kts | 89° |
| 2026-04-25 15:00 | 44.76569 | 24.51735 | 17727 ft | 342 kts | 89° |
| 2026-04-25 15:00 | 44.76535 | 24.53994 | 17495 ft | 341 kts | 89° |
| 2026-04-25 15:00 | 44.76466 | 24.58394 | 17067 ft | 338 kts | 89° |
| 2026-04-25 15:00 | 44.76413 | 24.61684 | 16746 ft | 336 kts | 89° |
| 2026-04-25 15:01 | 44.76360 | 24.64968 | 16435 ft | 334 kts | 89° |
| 2026-04-25 15:01 | 44.76306 | 24.68234 | 16121 ft | 332 kts | 89° |
| 2026-04-25 15:01 | 44.76252 | 24.71473 | 15806 ft | 331 kts | 89° |
| 2026-04-25 15:01 | 44.76196 | 24.74703 | 15498 ft | 329 kts | 89° |
| 2026-04-25 15:02 | 44.76140 | 24.77914 | 15181 ft | 328 kts | 89° |
| 2026-04-25 15:02 | 44.76084 | 24.81113 | 14867 ft | 326 kts | 89° |
| 2026-04-25 15:02 | 44.76026 | 24.84305 | 14571 ft | 325 kts | 89° |
| 2026-04-25 15:02 | 44.75969 | 24.87482 | 14256 ft | 324 kts | 89° |
| 2026-04-25 15:03 | 44.75910 | 24.90640 | 13964 ft | 322 kts | 89° |
| 2026-04-25 15:03 | 44.75851 | 24.93774 | 13719 ft | 319 kts | 89° |
| 2026-04-25 15:03 | 44.75791 | 24.96918 | 13068 ft | 327 kts | 89° |
| 2026-04-25 15:03 | 44.75730 | 25.00166 | 12261 ft | 335 kts | 89° |
| 2026-04-25 15:04 | 44.75665 | 25.03446 | 11596 ft | 335 kts | 90° |
| 2026-04-25 15:04 | 44.75599 | 25.06705 | 11020 ft | 333 kts | 90° |
| 2026-04-25 15:04 | 44.75533 | 25.09972 | 10632 ft | 333 kts | 90° |
| 2026-04-25 15:04 | 44.75465 | 25.13234 | 10184 ft | 334 kts | 89° |
| 2026-04-25 15:05 | 44.75374 | 25.16454 | 9979 ft | 327 kts | 93° |
| 2026-04-25 15:05 | 44.75033 | 25.19590 | 9779 ft | 320 kts | 100° |
| 2026-04-25 15:05 | 44.74540 | 25.22589 | 9688 ft | 309 kts | 101° |
| 2026-04-25 15:06 | 44.73589 | 25.28281 | 9517 ft | 290 kts | 101° |
| 2026-04-25 15:06 | 44.73149 | 25.31030 | 9275 ft | 287 kts | 100° |
| 2026-04-25 15:06 | 44.72725 | 25.33749 | 8984 ft | 282 kts | 100° |
| 2026-04-25 15:06 | 44.72311 | 25.36435 | 8487 ft | 281 kts | 100° |
| 2026-04-25 15:07 | 44.71898 | 25.39126 | 8027 ft | 281 kts | 101° |
| 2026-04-25 15:07 | 44.71483 | 25.41794 | 7605 ft | 278 kts | 103° |
| 2026-04-25 15:07 | 44.71017 | 25.44420 | 7165 ft | 277 kts | 107° |
| 2026-04-25 15:07 | 44.70219 | 25.46862 | 6863 ft | 272 kts | 120° |
| 2026-04-25 15:08 | 44.69241 | 25.49127 | 6583 ft | 270 kts | 122° |
| 2026-04-25 15:08 | 44.68236 | 25.51355 | 6310 ft | 270 kts | 122° |
| 2026-04-25 15:08 | 44.67232 | 25.53588 | 6025 ft | 270 kts | 122° |
| 2026-04-25 15:08 | 44.66241 | 25.55818 | 5747 ft | 269 kts | 121° |
| 2026-04-25 15:09 | 44.65232 | 25.58034 | 5496 ft | 268 kts | 124° |
| 2026-04-25 15:09 | 44.64240 | 25.60251 | 5241 ft | 267 kts | 121° |
| 2026-04-25 15:09 | 44.62338 | 25.64716 | 4747 ft | 261 kts | 121° |
| 2026-04-25 15:10 | 44.61422 | 25.66843 | 4618 ft | 248 kts | 121° |
| 2026-04-25 15:10 | 44.60551 | 25.68866 | 4505 ft | 236 kts | 121° |
| 2026-04-25 15:10 | 44.58886 | 25.72738 | 4304 ft | 224 kts | 123° |
| 2026-04-25 15:11 | 44.58082 | 25.74525 | 4243 ft | 209 kts | 121° |
| 2026-04-25 15:11 | 44.57347 | 25.76250 | 4060 ft | 203 kts | 120° |
| 2026-04-25 15:11 | 44.56618 | 25.77935 | 3882 ft | 202 kts | 123° |
| 2026-04-25 15:12 | 44.55148 | 25.81346 | 3460 ft | 205 kts | 120° |
| 2026-04-25 15:12 | 44.54528 | 25.83116 | 3361 ft | 199 kts | 108° |
| 2026-04-25 15:12 | 44.54416 | 25.84386 | 3197 ft | 200 kts | 78° |
| 2026-04-25 15:12 | 44.54711 | 25.85594 | 3110 ft | 197 kts | 65° |
| 2026-04-25 15:13 | 44.55007 | 25.88096 | 2800 ft | 193 kts | 86° |
| 2026-04-25 15:13 | 44.55287 | 25.91685 | 2348 ft | 183 kts | 86° |
| 2026-04-25 15:13 | 44.55425 | 25.93446 | 2116 ft | 180 kts | 84° |
| 2026-04-25 15:14 | 44.55522 | 25.95175 | 1898 ft | 176 kts | 84° |
| 2026-04-25 15:14 | 44.55678 | 25.96858 | 1676 ft | 170 kts | 83° |
| 2026-04-25 15:14 | 44.55779 | 25.98472 | 1509 ft | 168 kts | 84° |
| 2026-04-25 15:14 | 44.55892 | 26.00081 | 1271 ft | 162 kts | 84° |
| 2026-04-25 15:15 | 44.56025 | 26.01627 | 1097 ft | 160 kts | 83° |
| 2026-04-25 15:15 | 44.56127 | 26.03191 | 927 ft | 163 kts | 83° |
| 2026-04-25 15:15 | 44.56251 | 26.04769 | 718 ft | 163 kts | 83° |
| 2026-04-25 15:15 | 44.56372 | 26.06372 | 538 ft | 166 kts | 82° |
| 2026-04-25 15:16 | 44.56488 | 26.07988 | 343 ft | 166 kts | 83° |
| 2026-04-25 15:16 | 44.56596 | 26.09428 | 322 ft | 121 kts | 84° |
| 2026-04-25 15:16 | 44.56690 | 26.10664 | 322 ft | 20 kts | 84° |
| 2026-04-25 15:17 | 44.56865 | 26.10749 | 321 ft | 12 kts | 354° |
| 2026-04-25 15:17 | 44.56947 | 26.10738 | 321 ft | 12 kts | 354° |
| 2026-04-25 15:17 | 44.57015 | 26.10684 | 321 ft | 11 kts | 310° |
| 2026-04-25 15:18 | 44.57054 | 26.10587 | 320 ft | 11 kts | 299° |
| 2026-04-25 15:18 | 44.57055 | 26.10344 | 321 ft | 15 kts | 264° |
| 2026-04-25 15:18 | 44.57043 | 26.10194 | 321 ft | 17 kts | 263° |
| 2026-04-25 15:19 | 44.57030 | 26.10025 | 321 ft | 18 kts | 264° |
| 2026-04-25 15:19 | 44.57021 | 26.09904 | 320 ft | 19 kts | 264° |
| 2026-04-25 15:19 | 44.57000 | 26.09642 | 321 ft | 21 kts | 264° |
| 2026-04-25 15:19 | 44.56984 | 26.09432 | 321 ft | 22 kts | 264° |
| 2026-04-25 15:20 | 44.56968 | 26.09225 | 321 ft | 21 kts | 264° |
| 2026-04-25 15:20 | 44.56953 | 26.09024 | 321 ft | 20 kts | 264° |
| 2026-04-25 15:20 | 44.56938 | 26.08829 | 321 ft | 20 kts | 264° |
| 2026-04-25 15:20 | 44.56929 | 26.08714 | 321 ft | 3 kts | 263° |
| 2026-04-25 15:21 | 44.56926 | 26.08690 | 321 ft | 2 kts | 250° |
| 2026-04-25 15:21 | 44.56909 | 26.08681 | 321 ft | 3 kts | 179° |
| 2026-04-25 15:21 | 44.56890 | 26.08682 | 319 ft | 1 kts | 177° |
| 2026-04-25 15:21 | 44.56880 | 26.08684 | 321 ft | 1 kts | 173° |
| 2026-04-25 15:22 | 44.56876 | 26.08685 | 321 ft | 0 kts | 173° |